sensor_id;sensor_type;location;lat;lon;timestamp;pressure;altitude;pressure_sealevel;temperature;humidity
54882;BME280;40775;51.448;4.742;2022-10-16T00:01:42;100914.38;;;14.35;92.23
54882;BME280;40775;51.448;4.742;2022-10-16T00:04:10;100914.38;;;14.35;92.04
54882;BME280;40775;51.448;4.742;2022-10-16T00:06:37;100914.34;;;14.32;92.06
54882;BME280;40775;51.448;4.742;2022-10-16T00:09:05;100909.94;;;14.32;92.33
54882;BME280;40775;51.448;4.742;2022-10-16T00:11:36;100908.19;;;14.34;92.39
54882;BME280;40775;51.448;4.742;2022-10-16T00:14:08;100912.59;;;14.35;91.90
54882;BME280;40775;51.448;4.742;2022-10-16T00:16:36;100902.06;;;14.38;92.13
54882;BME280;40775;51.448;4.742;2022-10-16T00:19:04;100901.25;;;14.45;91.85
54882;BME280;40775;51.448;4.742;2022-10-16T00:21:32;100916.16;;;14.42;92.46
54882;BME280;40775;51.448;4.742;2022-10-16T00:24:05;100902.13;;;14.47;92.08
54882;BME280;40775;51.448;4.742;2022-10-16T00:26:34;100902.13;;;14.47;92.06
54882;BME280;40775;51.448;4.742;2022-10-16T00:29:02;100899.50;;;14.49;91.81
54882;BME280;40775;51.448;4.742;2022-10-16T00:31:30;100900.38;;;14.46;92.01
54882;BME280;40775;51.448;4.742;2022-10-16T00:33:57;100905.63;;;14.43;92.03
54882;BME280;40775;51.448;4.742;2022-10-16T00:36:25;100908.28;;;14.45;92.02
54882;BME280;40775;51.448;4.742;2022-10-16T00:38:57;100914.41;;;14.42;92.30
54882;BME280;40775;51.448;4.742;2022-10-16T00:41:32;100912.69;;;14.44;92.60
54882;BME280;40775;51.448;4.742;2022-10-16T00:44:02;100921.50;;;14.46;92.31
54882;BME280;40775;51.448;4.742;2022-10-16T00:46:39;100914.47;;;14.47;92.32
54882;BME280;40775;51.448;4.742;2022-10-16T00:49:15;100911.81;;;14.50;92.68
54882;BME280;40775;51.448;4.742;2022-10-16T00:51:53;100918.84;;;14.45;92.91
54882;BME280;40775;51.448;4.742;2022-10-16T00:54:27;100922.38;;;14.45;92.74
54882;BME280;40775;51.448;4.742;2022-10-16T00:56:58;100910.94;;;14.45;92.47
54882;BME280;40775;51.448;4.742;2022-10-16T00:59:33;100920.59;;;14.43;92.74
54882;BME280;40775;51.448;4.742;2022-10-16T01:02:04;100921.53;;;14.51;92.82
54882;BME280;40775;51.448;4.742;2022-10-16T01:04:52;100912.75;;;14.53;92.80
54882;BME280;40775;51.448;4.742;2022-10-16T01:10:35;100928.56;;;14.50;92.95
54882;BME280;40775;51.448;4.742;2022-10-16T01:16:38;100922.38;;;14.47;93.00
54882;BME280;40775;51.448;4.742;2022-10-16T01:19:20;100918.84;;;14.46;92.98
54882;BME280;40775;51.448;4.742;2022-10-16T01:21:53;100908.28;;;14.45;93.09
54882;BME280;40775;51.448;4.742;2022-10-16T01:24:44;100918.81;;;14.42;93.29
54882;BME280;40775;51.448;4.742;2022-10-16T01:27:30;100919.66;;;14.39;93.34
54882;BME280;40775;51.448;4.742;2022-10-16T01:30:21;100927.59;;;14.38;93.51
54882;BME280;40775;51.448;4.742;2022-10-16T01:32:57;100919.66;;;14.38;93.48
54882;BME280;40775;51.448;4.742;2022-10-16T01:35:47;100919.66;;;14.38;93.70
54882;BME280;40775;51.448;4.742;2022-10-16T01:38:33;100903.78;;;14.33;93.63
54882;BME280;40775;51.448;4.742;2022-10-16T01:41:30;100905.56;;;14.36;93.45
54882;BME280;40775;51.448;4.742;2022-10-16T01:44:11;100912.59;;;14.32;93.82
54882;BME280;40775;51.448;4.742;2022-10-16T01:46:46;100916.09;;;14.28;93.84
54882;BME280;40775;51.448;4.742;2022-10-16T01:49:14;100912.56;;;14.26;93.93
54882;BME280;40775;51.448;4.742;2022-10-16T01:51:46;100917.84;;;14.25;93.95
54882;BME280;40775;51.448;4.742;2022-10-16T01:54:16;100916.06;;;14.25;93.86
54882;BME280;40775;51.448;4.742;2022-10-16T01:56:47;100925.72;;;14.21;93.67
54882;BME280;40775;51.448;4.742;2022-10-16T01:59:20;100920.41;;;14.18;94.14
54882;BME280;40775;51.448;4.742;2022-10-16T02:01:52;100937.16;;;14.23;93.80
54882;BME280;40775;51.448;4.742;2022-10-16T02:04:28;100927.44;;;14.18;94.20
54882;BME280;40775;51.448;4.742;2022-10-16T02:06:56;100930.94;;;14.15;94.03
54882;BME280;40775;51.448;4.742;2022-10-16T02:09:25;100927.41;;;14.13;94.06
54882;BME280;40775;51.448;4.742;2022-10-16T02:11:57;100917.72;;;14.09;93.86
54882;BME280;40775;51.448;4.742;2022-10-16T02:14:29;100930.06;;;14.15;94.20
54882;BME280;40775;51.448;4.742;2022-10-16T02:16:56;100934.47;;;14.13;94.02
54882;BME280;40775;51.448;4.742;2022-10-16T02:19:23;100934.44;;;14.08;94.29
54882;BME280;40775;51.448;4.742;2022-10-16T02:21:58;100926.50;;;14.07;94.40
54882;BME280;40775;51.448;4.742;2022-10-16T02:27:36;100937.94;;;14.07;94.66
54882;BME280;40775;51.448;4.742;2022-10-16T02:30:27;100931.78;;;14.05;94.74
54882;BME280;40775;51.448;4.742;2022-10-16T02:32:58;100930.91;;;14.06;94.55
54882;BME280;40775;51.448;4.742;2022-10-16T02:35:28;100918.59;;;14.08;94.86
54882;BME280;40775;51.448;4.742;2022-10-16T02:37:57;100922.97;;;14.05;94.91
54882;BME280;40775;51.448;4.742;2022-10-16T02:40:25;100926.47;;;14.04;95.04
54882;BME280;40775;51.448;4.742;2022-10-16T02:42:55;100919.41;;;14.00;95.13
54882;BME280;40775;51.448;4.742;2022-10-16T02:45:24;100919.41;;;13.98;95.08
54882;BME280;40775;51.448;4.742;2022-10-16T02:47:52;100919.38;;;13.97;94.78
54882;BME280;40775;51.448;4.742;2022-10-16T02:50:19;100919.38;;;13.97;95.08
54882;BME280;40775;51.448;4.742;2022-10-16T02:52:46;100916.78;;;13.98;94.77
54882;BME280;40775;51.448;4.742;2022-10-16T02:55:13;100920.22;;;13.94;95.05
54882;BME280;40775;51.448;4.742;2022-10-16T02:57:40;100929.09;;;13.98;94.85
54882;BME280;40775;51.448;4.742;2022-10-16T03:00:11;100922.94;;;14.00;95.12
54882;BME280;40775;51.448;4.742;2022-10-16T03:02:39;100919.38;;;13.97;95.04
54882;BME280;40775;51.448;4.742;2022-10-16T03:05:07;100921.16;;;13.98;95.27
54882;BME280;40775;51.448;4.742;2022-10-16T03:07:34;100940.47;;;13.97;95.28
54882;BME280;40775;51.448;4.742;2022-10-16T03:10:01;100942.31;;;14.01;95.35
54882;BME280;40775;51.448;4.742;2022-10-16T03:12:29;100946.59;;;13.92;95.06
54882;BME280;40775;51.448;4.742;2022-10-16T03:14:56;100951.00;;;13.93;95.09
54882;BME280;40775;51.448;4.742;2022-10-16T03:17:24;100960.69;;;13.91;95.38
54882;BME280;40775;51.448;4.742;2022-10-16T03:19:52;100959.78;;;13.89;95.44
54882;BME280;40775;51.448;4.742;2022-10-16T03:22:19;100962.44;;;13.92;95.60
54882;BME280;40775;51.448;4.742;2022-10-16T03:24:46;100965.97;;;13.93;95.74
54882;BME280;40775;51.448;4.742;2022-10-16T03:27:13;100960.69;;;13.93;95.75
54882;BME280;40775;51.448;4.742;2022-10-16T03:29:41;100963.34;;;13.95;95.42
54882;BME280;40775;51.448;4.742;2022-10-16T03:32:07;100974.75;;;13.90;95.76
54882;BME280;40775;51.448;4.742;2022-10-16T03:34:34;100973.84;;;13.87;95.86
54882;BME280;40775;51.448;4.742;2022-10-16T03:37:02;100975.56;;;13.83;95.73
54882;BME280;40775;51.448;4.742;2022-10-16T03:39:29;100993.19;;;13.87;95.46
54882;BME280;40775;51.448;4.742;2022-10-16T03:41:56;100993.19;;;13.87;95.63
54882;BME280;40775;51.448;4.742;2022-10-16T03:44:22;100987.03;;;13.88;95.65
54882;BME280;40775;51.448;4.742;2022-10-16T03:46:49;100999.31;;;13.83;95.41
54882;BME280;40775;51.448;4.742;2022-10-16T03:49:16;100993.16;;;13.84;95.16
54882;BME280;40775;51.448;4.742;2022-10-16T03:51:43;100992.31;;;13.85;95.74
54882;BME280;40775;51.448;4.742;2022-10-16T03:54:11;100987.88;;;13.84;95.73
54882;BME280;40775;51.448;4.742;2022-10-16T03:56:38;100986.16;;;13.88;95.77
54882;BME280;40775;51.448;4.742;2022-10-16T03:59:05;100987.91;;;13.86;96.08
54882;BME280;40775;51.448;4.742;2022-10-16T04:01:32;100994.91;;;13.82;96.43
54882;BME280;40775;51.448;4.742;2022-10-16T04:03:59;100989.69;;;13.87;96.37
54882;BME280;40775;51.448;4.742;2022-10-16T04:06:26;100991.38;;;13.80;96.30
54882;BME280;40775;51.448;4.742;2022-10-16T04:08:53;100982.63;;;13.86;96.30
54882;BME280;40775;51.448;4.742;2022-10-16T04:11:20;100989.69;;;13.88;96.33
54882;BME280;40775;51.448;4.742;2022-10-16T04:13:47;100990.56;;;13.87;96.72
54882;BME280;40775;51.448;4.742;2022-10-16T04:16:14;100988.81;;;13.89;96.41
54882;BME280;40775;51.448;4.742;2022-10-16T04:18:41;100993.25;;;13.93;96.71
54882;BME280;40775;51.448;4.742;2022-10-16T04:21:08;100986.19;;;13.89;96.57
54882;BME280;40775;51.448;4.742;2022-10-16T04:23:35;100998.44;;;13.83;96.59
54882;BME280;40775;51.448;4.742;2022-10-16T04:26:02;100997.63;;;13.90;97.02
54882;BME280;40775;51.448;4.742;2022-10-16T04:28:29;101002.03;;;13.92;96.95
54882;BME280;40775;51.448;4.742;2022-10-16T04:30:57;101012.56;;;13.89;96.65
54882;BME280;40775;51.448;4.742;2022-10-16T04:33:24;101015.22;;;13.89;97.13
54882;BME280;40775;51.448;4.742;2022-10-16T04:35:58;101027.56;;;13.93;96.92
54882;BME280;40775;51.448;4.742;2022-10-16T04:38:26;101034.59;;;13.93;96.81
54882;BME280;40775;51.448;4.742;2022-10-16T04:40:53;101028.44;;;13.94;97.22
54882;BME280;40775;51.448;4.742;2022-10-16T04:43:20;101031.06;;;13.94;96.95
54882;BME280;40775;51.448;4.742;2022-10-16T04:45:48;101028.41;;;13.89;97.17
54882;BME280;40775;51.448;4.742;2022-10-16T04:48:18;101027.53;;;13.92;96.83
54882;BME280;40775;51.448;4.742;2022-10-16T04:50:45;101036.34;;;13.92;97.00
54882;BME280;40775;51.448;4.742;2022-10-16T04:53:17;101035.41;;;13.87;97.03
54882;BME280;40775;51.448;4.742;2022-10-16T04:55:44;101034.56;;;13.90;97.23
54882;BME280;40775;51.448;4.742;2022-10-16T04:58:11;101043.34;;;13.87;97.46
54882;BME280;40775;51.448;4.742;2022-10-16T05:00:38;101040.69;;;13.87;97.25
54882;BME280;40775;51.448;4.742;2022-10-16T05:03:05;101046.84;;;13.85;97.71
54882;BME280;40775;51.448;4.742;2022-10-16T05:05:36;101045.97;;;13.86;97.82
54882;BME280;40775;51.448;4.742;2022-10-16T05:08:03;101048.59;;;13.84;97.53
54882;BME280;40775;51.448;4.742;2022-10-16T05:10:30;101055.63;;;13.85;97.66
54882;BME280;40775;51.448;4.742;2022-10-16T05:12:58;101052.13;;;13.86;97.58
54882;BME280;40775;51.448;4.742;2022-10-16T05:15:25;101059.16;;;13.84;97.37
54882;BME280;40775;51.448;4.742;2022-10-16T05:17:53;101064.44;;;13.87;97.42
54882;BME280;40775;51.448;4.742;2022-10-16T05:20:21;101065.31;;;13.86;97.89
54882;BME280;40775;51.448;4.742;2022-10-16T05:22:48;101068.81;;;13.82;97.63
54882;BME280;40775;51.448;4.742;2022-10-16T05:25:15;101067.03;;;13.81;97.33
54882;BME280;40775;51.448;4.742;2022-10-16T05:27:43;101079.34;;;13.82;97.71
54882;BME280;40775;51.448;4.742;2022-10-16T05:30:10;101086.38;;;13.82;97.60
54882;BME280;40775;51.448;4.742;2022-10-16T05:32:38;101086.38;;;13.80;97.63
54882;BME280;40775;51.448;4.742;2022-10-16T05:35:05;101090.78;;;13.81;97.63
54882;BME280;40775;51.448;4.742;2022-10-16T05:37:38;101093.38;;;13.78;97.63
54882;BME280;40775;51.448;4.742;2022-10-16T05:40:06;101093.38;;;13.77;97.92
54882;BME280;40775;51.448;4.742;2022-10-16T05:42:33;101107.44;;;13.77;97.81
54882;BME280;40775;51.448;4.742;2022-10-16T05:45:00;101097.78;;;13.76;98.00
54882;BME280;40775;51.448;4.742;2022-10-16T05:47:27;101103.88;;;13.72;97.88
54882;BME280;40775;51.448;4.742;2022-10-16T05:49:55;101108.28;;;13.72;97.83
54882;BME280;40775;51.448;4.742;2022-10-16T05:52:22;101116.09;;;13.67;97.68
54882;BME280;40775;51.448;4.742;2022-10-16T05:54:49;101121.47;;;13.73;97.97
54882;BME280;40775;51.448;4.742;2022-10-16T05:57:16;101124.09;;;13.72;97.48
54882;BME280;40775;51.448;4.742;2022-10-16T05:59:43;101132.88;;;13.71;97.82
54882;BME280;40775;51.448;4.742;2022-10-16T06:02:14;101133.72;;;13.68;97.44
54882;BME280;40775;51.448;4.742;2022-10-16T06:04:41;101138.19;;;13.72;97.80
54882;BME280;40775;51.448;4.742;2022-10-16T06:07:08;101138.09;;;13.68;97.48
54882;BME280;40775;51.448;4.742;2022-10-16T06:09:35;101151.28;;;13.68;97.44
54882;BME280;40775;51.448;4.742;2022-10-16T06:12:02;101150.41;;;13.67;97.64
54882;BME280;40775;51.448;4.742;2022-10-16T06:14:29;101160.97;;;13.69;97.67
54882;BME280;40775;51.448;4.742;2022-10-16T06:16:56;101161.81;;;13.66;97.82
54882;BME280;40775;51.448;4.742;2022-10-16T06:19:23;101152.22;;;13.70;97.79
54882;BME280;40775;51.448;4.742;2022-10-16T06:21:50;101162.84;;;13.76;97.88
54882;BME280;40775;51.448;4.742;2022-10-16T06:24:17;101170.72;;;13.71;97.94
54882;BME280;40775;51.448;4.742;2022-10-16T06:26:44;101169.97;;;13.83;98.14
54882;BME280;40775;51.448;4.742;2022-10-16T06:29:11;101168.16;;;13.79;97.80
54882;BME280;40775;51.448;4.742;2022-10-16T06:31:38;101162.00;;;13.78;98.18
54882;BME280;40775;51.448;4.742;2022-10-16T06:34:05;101176.06;;;13.77;98.47
54882;BME280;40775;51.448;4.742;2022-10-16T06:36:37;101171.69;;;13.81;98.69
54882;BME280;40775;51.448;4.742;2022-10-16T06:39:05;101177.88;;;13.81;98.57
54882;BME280;40775;51.448;4.742;2022-10-16T06:41:34;101180.53;;;13.84;98.39
54882;BME280;40775;51.448;4.742;2022-10-16T06:44:04;101180.56;;;13.86;98.76
54882;BME280;40775;51.448;4.742;2022-10-16T06:46:31;101184.94;;;13.85;98.52
54882;BME280;40775;51.448;4.742;2022-10-16T06:48:58;101189.41;;;13.91;98.51
54882;BME280;40775;51.448;4.742;2022-10-16T06:51:25;101204.34;;;13.89;98.66
54882;BME280;40775;51.448;4.742;2022-10-16T06:53:55;101203.59;;;13.98;98.58
54882;BME280;40775;51.448;4.742;2022-10-16T06:56:33;101212.41;;;14.00;98.59
54882;BME280;40775;51.448;4.742;2022-10-16T06:59:02;101219.44;;;13.99;98.80
54882;BME280;40775;51.448;4.742;2022-10-16T07:01:29;101219.47;;;14.01;99.09
54882;BME280;40775;51.448;4.742;2022-10-16T07:03:56;101220.41;;;14.06;98.99
54882;BME280;40775;51.448;4.742;2022-10-16T07:06:25;101234.53;;;14.11;99.27
54882;BME280;40775;51.448;4.742;2022-10-16T07:08:53;101237.22;;;14.14;99.23
54882;BME280;40775;51.448;4.742;2022-10-16T07:11:22;101248.69;;;14.17;99.04
54882;BME280;40775;51.448;4.742;2022-10-16T07:13:51;101252.25;;;14.22;98.73
54882;BME280;40775;51.448;4.742;2022-10-16T07:16:24;101254.09;;;14.27;98.72
54882;BME280;40775;51.448;4.742;2022-10-16T07:18:57;101253.28;;;14.34;98.51
54882;BME280;40775;51.448;4.742;2022-10-16T07:21:33;101262.16;;;14.40;98.20
54882;BME280;40775;51.448;4.742;2022-10-16T07:24:06;101270.19;;;14.46;98.52
54882;BME280;40775;51.448;4.742;2022-10-16T07:26:37;101268.44;;;14.48;97.82
54882;BME280;40775;51.448;4.742;2022-10-16T07:29:18;101271.22;;;14.58;98.01
54882;BME280;40775;51.448;4.742;2022-10-16T07:31:48;101282.66;;;14.57;97.47
54882;BME280;40775;51.448;4.742;2022-10-16T07:34:18;101275.72;;;14.68;97.83
54882;BME280;40775;51.448;4.742;2022-10-16T07:36:49;101279.19;;;14.62;97.67
54882;BME280;40775;51.448;4.742;2022-10-16T07:39:17;101288.94;;;14.69;97.97
54882;BME280;40775;51.448;4.742;2022-10-16T07:41:44;101292.47;;;14.71;98.03
54882;BME280;40775;51.448;4.742;2022-10-16T07:44:11;101285.47;;;14.76;98.03
54882;BME280;40775;51.448;4.742;2022-10-16T07:46:38;101288.19;;;14.79;98.04
54882;BME280;40775;51.448;4.742;2022-10-16T07:49:05;101298.84;;;14.89;97.91
54882;BME280;40775;51.448;4.742;2022-10-16T07:51:32;101298.88;;;14.92;97.56
54882;BME280;40775;51.448;4.742;2022-10-16T07:53:59;101308.59;;;14.94;97.84
54882;BME280;40775;51.448;4.742;2022-10-16T07:56:26;101313.06;;;15.01;97.63
54882;BME280;40775;51.448;4.742;2022-10-16T07:58:53;101322.84;;;15.08;97.72
54882;BME280;40775;51.448;4.742;2022-10-16T08:01:21;101319.31;;;15.09;97.57
54882;BME280;40775;51.448;4.742;2022-10-16T08:03:50;101335.25;;;15.19;97.22
54882;BME280;40775;51.448;4.742;2022-10-16T08:06:19;101333.56;;;15.27;97.35
54882;BME280;40775;51.448;4.742;2022-10-16T08:08:54;101346.78;;;15.27;97.04
54882;BME280;40775;51.448;4.742;2022-10-16T08:11:22;101332.69;;;15.28;96.84
54882;BME280;40775;51.448;4.742;2022-10-16T08:13:50;101339.78;;;15.33;96.67
54882;BME280;40775;51.448;4.742;2022-10-16T08:16:17;101334.56;;;15.38;97.20
54882;BME280;40775;51.448;4.742;2022-10-16T08:18:44;101343.44;;;15.44;96.79
54882;BME280;40775;51.448;4.742;2022-10-16T08:21:18;101352.28;;;15.46;96.62
54882;BME280;40775;51.448;4.742;2022-10-16T08:23:48;101353.22;;;15.55;96.73
54882;BME280;40775;51.448;4.742;2022-10-16T08:26:24;101356.88;;;15.67;96.58
54882;BME280;40775;51.448;4.742;2022-10-16T08:28:51;101347.19;;;15.66;96.24
54882;BME280;40775;51.448;4.742;2022-10-16T08:31:19;101361.34;;;15.74;96.43
54882;BME280;40775;51.448;4.742;2022-10-16T08:33:47;101359.63;;;15.80;95.84
54882;BME280;40775;51.448;4.742;2022-10-16T08:36:15;101363.25;;;15.94;95.61
54882;BME280;40775;51.448;4.742;2022-10-16T08:38:43;101375.63;;;15.98;94.94
54882;BME280;40775;51.448;4.742;2022-10-16T08:44:15;101368.63;;;16.09;94.16
54882;BME280;40775;51.448;4.742;2022-10-16T08:47:25;101369.63;;;16.23;94.14
54882;BME280;40775;51.448;4.742;2022-10-16T08:50:10;101382.91;;;16.32;93.67
54882;BME280;40775;51.448;4.742;2022-10-16T08:52:43;101382.94;;;16.37;92.93
54882;BME280;40775;51.448;4.742;2022-10-16T08:58:16;101383.00;;;16.45;92.23
54882;BME280;40775;51.448;4.742;2022-10-16T09:00:53;101382.13;;;16.55;92.01
54882;BME280;40775;51.448;4.742;2022-10-16T09:09:34;101385.81;;;16.86;91.83
54882;BME280;40775;51.448;4.742;2022-10-16T09:12:33;101386.72;;;16.89;91.29
54882;BME280;40775;51.448;4.742;2022-10-16T09:18:02;101395.63;;;17.14;91.02
54882;BME280;40775;51.448;4.742;2022-10-16T09:23:29;101390.38;;;17.31;90.63
54882;BME280;40775;51.448;4.742;2022-10-16T09:25:58;101397.44;;;17.29;89.68
54882;BME280;40775;51.448;4.742;2022-10-16T09:28:26;101386.81;;;17.41;89.68
54882;BME280;40775;51.448;4.742;2022-10-16T09:30:53;101397.44;;;17.38;88.79
54882;BME280;40775;51.448;4.742;2022-10-16T09:33:29;101398.31;;;17.45;88.05
54882;BME280;40775;51.448;4.742;2022-10-16T09:35:57;101393.94;;;17.54;88.27
54882;BME280;40775;51.448;4.742;2022-10-16T09:38:31;101400.16;;;17.67;88.91
54882;BME280;40775;51.448;4.742;2022-10-16T09:41:00;101405.47;;;17.70;87.80
54882;BME280;40775;51.448;4.742;2022-10-16T09:43:41;101399.25;;;17.73;87.16
54882;BME280;40775;51.448;4.742;2022-10-16T09:46:35;101398.38;;;17.89;88.13
54882;BME280;40775;51.448;4.742;2022-10-16T09:49:25;101398.38;;;17.92;87.48
54882;BME280;40775;51.448;4.742;2022-10-16T09:52:13;101392.16;;;17.99;86.80
54882;BME280;40775;51.448;4.742;2022-10-16T09:54:56;101391.28;;;17.99;86.09
54882;BME280;40775;51.448;4.742;2022-10-16T09:57:24;101388.63;;;18.09;86.39
54882;BME280;40775;51.448;4.742;2022-10-16T09:59:57;101398.31;;;18.27;86.76
54882;BME280;40775;51.448;4.742;2022-10-16T10:02:34;101400.06;;;18.27;86.22
54882;BME280;40775;51.448;4.742;2022-10-16T10:05:27;101395.63;;;18.29;85.42
54882;BME280;40775;51.448;4.742;2022-10-16T10:08:01;101401.84;;;18.35;84.91
54882;BME280;40775;51.448;4.742;2022-10-16T10:10:40;101407.16;;;18.40;84.83
54882;BME280;40775;51.448;4.742;2022-10-16T10:13:22;101406.28;;;18.36;84.26
54882;BME280;40775;51.448;4.742;2022-10-16T10:15:51;101408.84;;;18.54;84.56
54882;BME280;40775;51.448;4.742;2022-10-16T10:18:21;101420.41;;;18.64;84.98
54882;BME280;40775;51.448;4.742;2022-10-16T10:21:02;101423.06;;;18.66;84.04
54882;BME280;40775;51.448;4.742;2022-10-16T10:23:30;101415.94;;;18.69;83.74
54882;BME280;40775;51.448;4.742;2022-10-16T10:26:20;101408.81;;;18.76;82.93
54882;BME280;40775;51.448;4.742;2022-10-16T10:29:18;101412.31;;;18.86;82.61
54882;BME280;40775;51.448;4.742;2022-10-16T10:35:00;101414.09;;;18.83;82.32
54882;BME280;40775;51.448;4.742;2022-10-16T10:40:30;101427.41;;;18.83;81.96
54882;BME280;40775;51.448;4.742;2022-10-16T10:46:00;101433.59;;;18.92;82.00
54882;BME280;40775;51.448;4.742;2022-10-16T10:55:16;101419.13;;;19.37;80.93
54882;BME280;40775;51.448;4.742;2022-10-16T11:06:20;101430.75;;;19.25;80.06
54882;BME280;40775;51.448;4.742;2022-10-16T11:09:12;101423.63;;;19.29;79.62
54882;BME280;40775;51.448;4.742;2022-10-16T11:11:56;101429.69;;;19.51;80.52
54882;BME280;40775;51.448;4.742;2022-10-16T11:14:38;101422.59;;;19.50;80.05
54882;BME280;40775;51.448;4.742;2022-10-16T11:17:38;101436.66;;;19.70;80.04
54882;BME280;40775;51.448;4.742;2022-10-16T11:20:27;101438.34;;;19.85;78.86
54882;BME280;40775;51.448;4.742;2022-10-16T11:23:14;101432.03;;;19.93;77.72
54882;BME280;40775;51.448;4.742;2022-10-16T11:25:43;101435.56;;;19.97;77.44
54882;BME280;40775;51.448;4.742;2022-10-16T11:31:09;101434.09;;;19.58;75.66
54882;BME280;40775;51.448;4.742;2022-10-16T11:34:09;101438.41;;;19.77;76.73
54882;BME280;40775;51.448;4.742;2022-10-16T11:36:57;101439.19;;;19.88;75.60
54882;BME280;40775;51.448;4.742;2022-10-16T11:39:30;101432.00;;;20.01;75.43
54882;BME280;40775;51.448;4.742;2022-10-16T11:44:53;101436.34;;;20.10;73.48
54882;BME280;40775;51.448;4.742;2022-10-16T11:47:51;101425.66;;;20.13;74.61
54882;BME280;40775;51.448;4.742;2022-10-16T11:50:54;101430.84;;;20.25;74.30
54882;BME280;40775;51.448;4.742;2022-10-16T11:56:15;101438.03;;;20.17;75.43
54882;BME280;40775;51.448;4.742;2022-10-16T12:01:40;101453.38;;;19.90;73.69
54882;BME280;40775;51.448;4.742;2022-10-16T12:04:21;101453.41;;;19.89;74.70
54882;BME280;40775;51.448;4.742;2022-10-16T12:07:10;101454.22;;;19.97;75.35
54882;BME280;40775;51.448;4.742;2022-10-16T12:09:41;101452.41;;;20.03;76.14
54882;BME280;40775;51.448;4.742;2022-10-16T12:12:47;101441.75;;;19.97;75.43
54882;BME280;40775;51.448;4.742;2022-10-16T12:15:28;101437.19;;;20.13;74.79
54882;BME280;40775;51.448;4.742;2022-10-16T12:18:25;101445.88;;;20.35;74.29
54882;BME280;40775;51.448;4.742;2022-10-16T12:20:59;101443.16;;;20.40;73.29
54882;BME280;40775;51.448;4.742;2022-10-16T12:26:27;101431.59;;;20.42;73.04
54882;BME280;40775;51.448;4.742;2022-10-16T12:28:57;101436.03;;;20.38;71.84
54882;BME280;40775;51.448;4.742;2022-10-16T12:31:45;101436.03;;;20.38;70.19
54882;BME280;40775;51.448;4.742;2022-10-16T12:37:23;101433.31;;;20.46;72.27
54882;BME280;40775;51.448;4.742;2022-10-16T12:39:53;101435.16;;;20.41;71.46
54882;BME280;40775;51.448;4.742;2022-10-16T12:44:54;101428.03;;;20.43;70.60
54882;BME280;40775;51.448;4.742;2022-10-16T12:47:38;101415.38;;;20.60;71.68
54882;BME280;40775;51.448;4.742;2022-10-16T12:50:37;101420.88;;;20.47;70.31
54882;BME280;40775;51.448;4.742;2022-10-16T12:53:19;101417.00;;;20.74;71.24
54882;BME280;40775;51.448;4.742;2022-10-16T13:04:26;101434.09;;;20.57;70.44
54882;BME280;40775;51.448;4.742;2022-10-16T13:22:21;101455.16;;;20.80;71.10
54882;BME280;40775;51.448;4.742;2022-10-16T13:25:22;101450.59;;;20.90;70.75
54882;BME280;40775;51.448;4.742;2022-10-16T13:28:06;101447.03;;;20.91;71.59
54882;BME280;40775;51.448;4.742;2022-10-16T13:30:41;101448.91;;;20.81;71.43
54882;BME280;40775;51.448;4.742;2022-10-16T13:33:20;101452.41;;;20.88;72.13
54882;BME280;40775;51.448;4.742;2022-10-16T13:35:55;101449.75;;;20.88;72.13
54882;BME280;40775;51.448;4.742;2022-10-16T13:38:25;101448.81;;;20.92;72.37
54882;BME280;40775;51.448;4.742;2022-10-16T13:41:04;101440.66;;;21.01;70.64
54882;BME280;40775;51.448;4.742;2022-10-16T13:43:39;101437.03;;;21.07;71.10
54882;BME280;40775;51.448;4.742;2022-10-16T13:46:16;101442.31;;;21.11;69.83
54882;BME280;40775;51.448;4.742;2022-10-16T13:48:44;101438.06;;;20.96;69.16
54882;BME280;40775;51.448;4.742;2022-10-16T13:51:18;101447.94;;;20.90;70.80
54882;BME280;40775;51.448;4.742;2022-10-16T13:53:46;101440.91;;;20.84;70.83
54882;BME280;40775;51.448;4.742;2022-10-16T13:56:17;101449.84;;;20.82;71.46
54882;BME280;40775;51.448;4.742;2022-10-16T13:58:44;101450.69;;;20.81;71.00
54882;BME280;40775;51.448;4.742;2022-10-16T14:04:08;101448.22;;;20.65;71.86
54882;BME280;40775;51.448;4.742;2022-10-16T14:06:41;101440.31;;;20.59;71.99
54882;BME280;40775;51.448;4.742;2022-10-16T14:09:21;101439.41;;;20.60;71.31
54882;BME280;40775;51.448;4.742;2022-10-16T14:11:58;101442.09;;;20.57;71.67
54882;BME280;40775;51.448;4.742;2022-10-16T14:14:52;101455.44;;;20.57;72.31
54882;BME280;40775;51.448;4.742;2022-10-16T14:17:27;101448.31;;;20.58;71.71
54882;BME280;40775;51.448;4.742;2022-10-16T14:19:58;101441.22;;;20.54;72.19
54882;BME280;40775;51.448;4.742;2022-10-16T14:22:38;101435.00;;;20.53;71.46
54882;BME280;40775;51.448;4.742;2022-10-16T14:25:26;101424.34;;;20.53;71.76
54882;BME280;40775;51.448;4.742;2022-10-16T14:28:00;101431.50;;;20.50;72.37
54882;BME280;40775;51.448;4.742;2022-10-16T14:30:35;101441.28;;;20.49;71.89
54882;BME280;40775;51.448;4.742;2022-10-16T14:33:18;101436.91;;;20.44;72.67
54882;BME280;40775;51.448;4.742;2022-10-16T14:35:46;101434.25;;;20.42;72.99
54882;BME280;40775;51.448;4.742;2022-10-16T14:38:25;101436.97;;;20.36;72.82
54882;BME280;40775;51.448;4.742;2022-10-16T14:40:52;101430.78;;;20.34;72.33
54882;BME280;40775;51.448;4.742;2022-10-16T14:43:41;101432.56;;;20.33;72.47
54882;BME280;40775;51.448;4.742;2022-10-16T14:46:28;101437.88;;;20.33;72.83
54882;BME280;40775;51.448;4.742;2022-10-16T14:49:20;101440.59;;;20.30;73.32
54882;BME280;40775;51.448;4.742;2022-10-16T14:51:48;101437.97;;;20.24;73.95
54882;BME280;40775;51.448;4.742;2022-10-16T14:54:18;101438.03;;;20.18;74.07
54882;BME280;40775;51.448;4.742;2022-10-16T14:56:57;101439.81;;;20.18;74.75
54882;BME280;40775;51.448;4.742;2022-10-16T14:59:40;101431.81;;;20.18;74.22